Terminal Aerodrome Forecast
Issued by NWS Knoxville/Tri Cities, TN

Home | Current Version | Previous Version | Text Only | Print | Product List | Glossary On
Versions: 1 2 3 4 5 6 7 8 9 10 11 12 13 14 15 16 17 18 19 20 21 22 23
000
FTUS44 KMRX 061139
TAFCHA
TAF
KCHA 061139Z 0612/0712 06008KT 4SM -RA BR SCT005 BKN020
      WS020/19045KT
      TEMPO 0612/0614 1 1/2SM SHRA BR BKN005
     FM061400 20006KT 6SM -RA BR SCT007 BKN025
     FM061600 26010KT P6SM SCT020 BKN040
     FM070000 31012KT P6SM BKN025
     FM070500 36010KT P6SM OVC020=

USA.gov is the U.S. government's official web portal to all federal, state and local government web resources and services.